Terminal Aerodrome Forecast
Issued by NWS Louisville, KY

Home | Current Version | Previous Version | Text Only | Print | Product List | Glossary On
Versions: 1 2 3 4 5 6 7 8 9 10 11 12 13 14 15 16 17 18 19 20 21 22 23 24 25
000
FTUS43 KLMK 011935 AAA
TAFBWG
TAF AMD
KBWG 011935Z 0120/0218 22007KT P6SM SCT017 BKN050
     FM020100 VRB03KT P6SM BKN040
     FM020800 00000KT 6SM BR BKN025
      TEMPO 0209/0213 4SM BR BKN015=

USA.gov is the U.S. government's official web portal to all federal, state and local government web resources and services.